Accueil
METAR-TAF:

METAR-TAF

Aéroports :

Georgetown, Île de l'Ascension

latitude: 07-58S, longitude: 014-24W, altitude: 86 m

Observation

Le bulletin a été fait il y a 15 minutes, à 02:50 UTC
Vent 17 kt de est/sud-est
Température
Pression 1015 hPa
Visibilité 10 km ou plus
Nuages épars à une hauteur de 2000 ft
Nuages fragmentés à une hauteur de 3500 ft

METAR: FHAW 240250Z 11017KT 9999 SCT020 BKN035 23/2 Q1015 WHT

Heure: 03:05 (03:05 UTC)

Prévision

Le bulletin a été fait il y a 10 heures et 35 minutes, à 16:30 UTC
Prévision valable du 23 à 18 UTC au 24 à 12 UTC
Vent 14 kt de sud-est
Visibilité 10 km ou plus
Quelques nuages à une hauteur de 2500 ft
Temporairement
du 24 à 06 UTC au 24 à 12 UTC
Nuages épars à une hauteur de 1800 ft
faibles averses de pluie

TAF: FHAW 231630Z 2318/2412 14014KT 9999 FEW025 TEMPO 2406/2412 -SHRA SCT018

Observations et prévisions météorologiques de plus de 4000 aéroports (messages METAR et TAF).

Les stations disponibles sont représentées par des disques jaunes et rouges sur la carte.

Passer la souris dessus pour voir le nom de la station.

Cliquer dessus pour voir les observations et prévisions météorologiques.

Pour changer de carte: cliquez sur les boutons verts avec une croix noire pour zoomer, sur le bouton vert avec un tiret pour effectuer un zoom arrière, ou sur les flèches vertes pour les cartes adjacentes.


METAR-TAF: